LNI647 WADL-WIII
Flight info
| Callsign | LNI647 |
|---|---|
| Flight time | 1h 44m |
| Altitude | 34000 |
| Route | DULOS T20 OKANG T4 FARIZ T6 KURUS |
| Aircraft | B738/M-SDE2E3FGHIRWXY/LB1 |
Departure
| Time | 2026-04-19 04:10 |
|---|---|
| Airport | Lombok International Airport (WADL) |
Arrival
| Time | 2026-04-19 05:54 |
|---|---|
| Airport | Soekarno-Hatta International Airport (WIII) |
| Time | Latitude | Longitude | Altitude | Speed | Heading |
|---|---|---|---|---|---|
| 2026-04-19 03:45 | -8.76122 | 116.27447 | 320 ft | 0 kts | 220° |
| 2026-04-19 04:00 | -8.76118 | 116.27451 | 320 ft | 2 kts | 220° |
| 2026-04-19 04:00 | -8.76107 | 116.27460 | 320 ft | 2 kts | 220° |
| 2026-04-19 04:00 | -8.76096 | 116.27470 | 320 ft | 2 kts | 220° |
| 2026-04-19 04:00 | -8.76084 | 116.27480 | 321 ft | 2 kts | 219° |
| 2026-04-19 04:01 | -8.76076 | 116.27492 | 321 ft | 2 kts | 259° |
| 2026-04-19 04:01 | -8.76080 | 116.27515 | 321 ft | 1 kts | 310° |
| 2026-04-19 04:01 | -8.76085 | 116.27520 | 321 ft | 0 kts | 310° |
| 2026-04-19 04:03 | -8.76084 | 116.27518 | 321 ft | 1 kts | 310° |
| 2026-04-19 04:04 | -8.76057 | 116.27486 | 321 ft | 10 kts | 309° |
| 2026-04-19 04:04 | -8.75995 | 116.27409 | 319 ft | 15 kts | 309° |
| 2026-04-19 04:04 | -8.75928 | 116.27335 | 318 ft | 13 kts | 323° |
| 2026-04-19 04:04 | -8.75855 | 116.27329 | 318 ft | 9 kts | 34° |
| 2026-04-19 04:05 | -8.75820 | 116.27353 | 318 ft | 4 kts | 18° |
| 2026-04-19 04:05 | -8.75777 | 116.27329 | 318 ft | 9 kts | 309° |
| 2026-04-19 04:05 | -8.75733 | 116.27272 | 318 ft | 12 kts | 308° |
| 2026-04-19 04:05 | -8.75670 | 116.27183 | 318 ft | 17 kts | 305° |
| 2026-04-19 04:06 | -8.75601 | 116.27082 | 318 ft | 17 kts | 310° |
| 2026-04-19 04:06 | -8.75524 | 116.27000 | 318 ft | 14 kts | 314° |
| 2026-04-19 04:06 | -8.75461 | 116.26932 | 318 ft | 11 kts | 315° |
| 2026-04-19 04:06 | -8.75402 | 116.26868 | 320 ft | 14 kts | 314° |
| 2026-04-19 04:07 | -8.75320 | 116.26784 | 321 ft | 19 kts | 313° |
| 2026-04-19 04:07 | -8.75244 | 116.26698 | 321 ft | 11 kts | 310° |
| 2026-04-19 04:07 | -8.75215 | 116.26662 | 321 ft | 3 kts | 301° |
| 2026-04-19 04:07 | -8.75181 | 116.26619 | 321 ft | 12 kts | 316° |
| 2026-04-19 04:08 | -8.75109 | 116.26551 | 321 ft | 15 kts | 320° |
| 2026-04-19 04:08 | -8.75030 | 116.26525 | 321 ft | 8 kts | 26° |
| 2026-04-19 04:08 | -8.74996 | 116.26547 | 321 ft | 4 kts | 33° |
| 2026-04-19 04:08 | -8.74984 | 116.26611 | 321 ft | 9 kts | 132° |
| 2026-04-19 04:09 | -8.74998 | 116.26628 | 321 ft | 0 kts | 129° |
| 2026-04-19 04:09 | -8.75010 | 116.26644 | 321 ft | 7 kts | 129° |
| 2026-04-19 04:09 | -8.75105 | 116.26759 | 321 ft | 58 kts | 129° |
| 2026-04-19 04:09 | -8.75567 | 116.27329 | 318 ft | 148 kts | 130° |
| 2026-04-19 04:10 | -8.76291 | 116.28236 | 1028 ft | 171 kts | 129° |
| 2026-04-19 04:10 | -8.77031 | 116.29180 | 2029 ft | 182 kts | 129° |
| 2026-04-19 04:10 | -8.77872 | 116.30211 | 2693 ft | 206 kts | 130° |
| 2026-04-19 04:10 | -8.78819 | 116.31393 | 3430 ft | 231 kts | 130° |
| 2026-04-19 04:11 | -8.79859 | 116.32685 | 4272 ft | 251 kts | 129° |
| 2026-04-19 04:11 | -8.80983 | 116.34086 | 5228 ft | 268 kts | 129° |
| 2026-04-19 04:11 | -8.82172 | 116.35565 | 6374 ft | 276 kts | 129° |
| 2026-04-19 04:11 | -8.83388 | 116.37079 | 7524 ft | 283 kts | 128° |
| 2026-04-19 04:12 | -8.84779 | 116.38483 | 8662 ft | 289 kts | 145° |
| 2026-04-19 04:12 | -8.86627 | 116.39246 | 9738 ft | 297 kts | 170° |
| 2026-04-19 04:12 | -8.88664 | 116.39163 | 10700 ft | 308 kts | 193° |
| 2026-04-19 04:12 | -8.90709 | 116.38237 | 10984 ft | 341 kts | 214° |
| 2026-04-19 04:13 | -8.92571 | 116.36674 | 10977 ft | 349 kts | 222° |
| 2026-04-19 04:13 | -8.94382 | 116.35052 | 11311 ft | 351 kts | 221° |
| 2026-04-19 04:13 | -8.96254 | 116.33418 | 11860 ft | 357 kts | 221° |
| 2026-04-19 04:13 | -8.98135 | 116.31774 | 12398 ft | 360 kts | 221° |
| 2026-04-19 04:14 | -9.00011 | 116.30102 | 12934 ft | 364 kts | 224° |
| 2026-04-19 04:14 | -9.01482 | 116.28045 | 13462 ft | 366 kts | 246° |
| 2026-04-19 04:14 | -9.01984 | 116.25506 | 14011 ft | 369 kts | 272° |
| 2026-04-19 04:14 | -9.01376 | 116.23030 | 14549 ft | 370 kts | 297° |
| 2026-04-19 04:15 | -8.99862 | 116.20920 | 15105 ft | 371 kts | 312° |
| 2026-04-19 04:15 | -8.98119 | 116.19003 | 15641 ft | 373 kts | 317° |
| 2026-04-19 04:15 | -8.96018 | 116.17539 | 16167 ft | 373 kts | 336° |
| 2026-04-19 04:15 | -8.93531 | 116.16738 | 16722 ft | 376 kts | 346° |
| 2026-04-19 04:16 | -8.91011 | 116.16065 | 17260 ft | 379 kts | 345° |
| 2026-04-19 04:16 | -8.88474 | 116.15301 | 17801 ft | 382 kts | 343° |
| 2026-04-19 04:16 | -8.85930 | 116.14511 | 18341 ft | 385 kts | 343° |
| 2026-04-19 04:16 | -8.83387 | 116.13727 | 18877 ft | 388 kts | 344° |
| 2026-04-19 04:17 | -8.80789 | 116.12924 | 19420 ft | 392 kts | 343° |
| 2026-04-19 04:17 | -8.78188 | 116.12115 | 19959 ft | 395 kts | 343° |
| 2026-04-19 04:17 | -8.75558 | 116.11296 | 20500 ft | 398 kts | 343° |
| 2026-04-19 04:17 | -8.72926 | 116.10477 | 21037 ft | 401 kts | 343° |
| 2026-04-19 04:18 | -8.70290 | 116.09655 | 21571 ft | 405 kts | 343° |
| 2026-04-19 04:18 | -8.67586 | 116.08812 | 22114 ft | 408 kts | 343° |
| 2026-04-19 04:18 | -8.64879 | 116.07968 | 22652 ft | 412 kts | 343° |
| 2026-04-19 04:18 | -8.62145 | 116.07116 | 23192 ft | 415 kts | 343° |
| 2026-04-19 04:19 | -8.59374 | 116.06252 | 23727 ft | 419 kts | 344° |
| 2026-04-19 04:19 | -8.56588 | 116.05384 | 23926 ft | 427 kts | 343° |
| 2026-04-19 04:19 | -8.53796 | 116.04513 | 24201 ft | 418 kts | 343° |
| 2026-04-19 04:19 | -8.51018 | 116.03647 | 24753 ft | 421 kts | 344° |
| 2026-04-19 04:20 | -8.48211 | 116.02773 | 25292 ft | 429 kts | 344° |
| 2026-04-19 04:20 | -8.45356 | 116.01883 | 25830 ft | 434 kts | 344° |
| 2026-04-19 04:20 | -8.42470 | 116.00984 | 26371 ft | 436 kts | 344° |
| 2026-04-19 04:20 | -8.39541 | 116.00072 | 26917 ft | 439 kts | 344° |
| 2026-04-19 04:21 | -8.36662 | 115.99174 | 27450 ft | 442 kts | 344° |
| 2026-04-19 04:21 | -8.33689 | 115.98249 | 27996 ft | 446 kts | 344° |
| 2026-04-19 04:21 | -8.30736 | 115.97330 | 28534 ft | 450 kts | 343° |
| 2026-04-19 04:21 | -8.27764 | 115.96404 | 29070 ft | 454 kts | 343° |
| 2026-04-19 04:22 | -8.24736 | 115.95460 | 29612 ft | 458 kts | 343° |
| 2026-04-19 04:22 | -8.21734 | 115.94310 | 30155 ft | 462 kts | 336° |
| 2026-04-19 04:22 | -8.18941 | 115.92741 | 30692 ft | 465 kts | 326° |
| 2026-04-19 04:22 | -8.16460 | 115.90684 | 31230 ft | 467 kts | 315° |
| 2026-04-19 04:23 | -8.14350 | 115.88233 | 31769 ft | 467 kts | 307° |
| 2026-04-19 04:23 | -8.12572 | 115.85496 | 32309 ft | 465 kts | 298° |
| 2026-04-19 04:23 | -8.11379 | 115.82481 | 32852 ft | 461 kts | 285° |
| 2026-04-19 04:23 | -8.10701 | 115.79366 | 33394 ft | 459 kts | 280° |
| 2026-04-19 04:24 | -8.10083 | 115.76199 | 33879 ft | 460 kts | 281° |
| 2026-04-19 04:24 | -8.09419 | 115.73047 | 33941 ft | 462 kts | 282° |
| 2026-04-19 04:24 | -8.08087 | 115.66807 | 33939 ft | 451 kts | 281° |
| 2026-04-19 04:25 | -8.06794 | 115.60577 | 33939 ft | 453 kts | 281° |
| 2026-04-19 04:25 | -8.05512 | 115.54387 | 33939 ft | 454 kts | 281° |
| 2026-04-19 04:26 | -8.04226 | 115.48152 | 33939 ft | 454 kts | 281° |
| 2026-04-19 04:26 | -8.02942 | 115.41914 | 33939 ft | 453 kts | 281° |
| 2026-04-19 04:27 | -8.01669 | 115.35733 | 33939 ft | 454 kts | 281° |
| 2026-04-19 04:27 | -8.00383 | 115.29487 | 33939 ft | 454 kts | 281° |
| 2026-04-19 04:28 | -7.99099 | 115.23257 | 33939 ft | 454 kts | 281° |
| 2026-04-19 04:28 | -7.97819 | 115.17047 | 33939 ft | 454 kts | 281° |
| 2026-04-19 04:29 | -7.96535 | 115.10822 | 33939 ft | 455 kts | 282° |
| 2026-04-19 04:29 | -7.95253 | 115.04610 | 33939 ft | 454 kts | 282° |
| 2026-04-19 04:30 | -7.93966 | 114.98383 | 33939 ft | 452 kts | 283° |
| 2026-04-19 04:30 | -7.92688 | 114.92198 | 33939 ft | 450 kts | 283° |
| 2026-04-19 04:31 | -7.91418 | 114.86061 | 33939 ft | 451 kts | 283° |
| 2026-04-19 04:31 | -7.90139 | 114.79878 | 33939 ft | 451 kts | 283° |
| 2026-04-19 04:32 | -7.88858 | 114.73696 | 33939 ft | 451 kts | 283° |
| 2026-04-19 04:32 | -7.87573 | 114.67500 | 33939 ft | 451 kts | 283° |
| 2026-04-19 04:33 | -7.86291 | 114.61324 | 33939 ft | 451 kts | 283° |
| 2026-04-19 04:33 | -7.85007 | 114.55141 | 33939 ft | 451 kts | 283° |
| 2026-04-19 04:34 | -7.83717 | 114.48937 | 33939 ft | 451 kts | 283° |
| 2026-04-19 04:34 | -7.82436 | 114.42777 | 33939 ft | 451 kts | 283° |
| 2026-04-19 04:35 | -7.81148 | 114.36587 | 33939 ft | 451 kts | 283° |
| 2026-04-19 04:35 | -7.79863 | 114.30418 | 33939 ft | 451 kts | 283° |
| 2026-04-19 04:36 | -7.78579 | 114.24259 | 33939 ft | 451 kts | 283° |
| 2026-04-19 04:36 | -7.77282 | 114.18040 | 33939 ft | 451 kts | 283° |
| 2026-04-19 04:37 | -7.75936 | 114.11893 | 33938 ft | 451 kts | 286° |
| 2026-04-19 04:37 | -7.73625 | 114.06068 | 33939 ft | 448 kts | 301° |
| 2026-04-19 04:38 | -7.70216 | 114.00819 | 33939 ft | 448 kts | 304° |
| 2026-04-19 04:38 | -7.66842 | 113.95564 | 33939 ft | 447 kts | 304° |
| 2026-04-19 04:39 | -7.63451 | 113.90318 | 33939 ft | 447 kts | 304° |
| 2026-04-19 04:39 | -7.60050 | 113.85080 | 33939 ft | 447 kts | 304° |
| 2026-04-19 04:40 | -7.56628 | 113.79819 | 33939 ft | 447 kts | 304° |
| 2026-04-19 04:40 | -7.53222 | 113.74587 | 33938 ft | 447 kts | 304° |
| 2026-04-19 04:41 | -7.49817 | 113.69364 | 33930 ft | 447 kts | 304° |
| 2026-04-19 04:41 | -7.46410 | 113.64138 | 33922 ft | 447 kts | 304° |
| 2026-04-19 04:42 | -7.43002 | 113.58915 | 33916 ft | 447 kts | 304° |
| 2026-04-19 04:42 | -7.39602 | 113.53706 | 33914 ft | 447 kts | 304° |
| 2026-04-19 04:43 | -7.36183 | 113.48471 | 33912 ft | 447 kts | 304° |
| 2026-04-19 04:43 | -7.32767 | 113.43241 | 33912 ft | 447 kts | 304° |
| 2026-04-19 04:44 | -7.29362 | 113.38030 | 33912 ft | 447 kts | 304° |
| 2026-04-19 04:44 | -7.25939 | 113.32793 | 33912 ft | 447 kts | 304° |
| 2026-04-19 04:45 | -7.22517 | 113.27560 | 33912 ft | 447 kts | 304° |
| 2026-04-19 04:45 | -7.19086 | 113.22315 | 33912 ft | 447 kts | 304° |
| 2026-04-19 04:46 | -7.15650 | 113.17063 | 33912 ft | 447 kts | 304° |
| 2026-04-19 04:46 | -7.12244 | 113.11861 | 33912 ft | 447 kts | 304° |
| 2026-04-19 04:47 | -7.08818 | 113.06627 | 33912 ft | 447 kts | 304° |
| 2026-04-19 04:47 | -7.05402 | 113.01411 | 33912 ft | 448 kts | 304° |
| 2026-04-19 04:48 | -7.01966 | 112.96166 | 33912 ft | 450 kts | 304° |
| 2026-04-19 04:48 | -6.98523 | 112.90914 | 33912 ft | 452 kts | 304° |
| 2026-04-19 04:49 | -6.95074 | 112.85653 | 33912 ft | 453 kts | 304° |
| 2026-04-19 04:49 | -6.91608 | 112.80366 | 33912 ft | 453 kts | 304° |
| 2026-04-19 04:50 | -6.88141 | 112.75082 | 33912 ft | 452 kts | 304° |
| 2026-04-19 04:50 | -6.84700 | 112.69838 | 33912 ft | 452 kts | 304° |
| 2026-04-19 04:51 | -6.81235 | 112.64559 | 33912 ft | 452 kts | 304° |
| 2026-04-19 04:51 | -6.77772 | 112.59286 | 33912 ft | 452 kts | 304° |
| 2026-04-19 04:52 | -6.74300 | 112.53999 | 33912 ft | 452 kts | 304° |
| 2026-04-19 04:52 | -6.70821 | 112.48704 | 33912 ft | 452 kts | 304° |
| 2026-04-19 04:53 | -6.67351 | 112.43424 | 33912 ft | 452 kts | 304° |
| 2026-04-19 04:53 | -6.63886 | 112.38154 | 33884 ft | 453 kts | 304° |
| 2026-04-19 04:54 | -6.60425 | 112.32891 | 33885 ft | 452 kts | 304° |
| 2026-04-19 04:54 | -6.56942 | 112.27595 | 33885 ft | 452 kts | 304° |
| 2026-04-19 04:55 | -6.53471 | 112.22321 | 33885 ft | 452 kts | 304° |
| 2026-04-19 04:55 | -6.50002 | 112.17051 | 33885 ft | 452 kts | 304° |
| 2026-04-19 04:56 | -6.46549 | 112.11806 | 33885 ft | 452 kts | 304° |
| 2026-04-19 04:56 | -6.43068 | 112.06520 | 33885 ft | 452 kts | 304° |
| 2026-04-19 04:57 | -6.39614 | 112.01276 | 33885 ft | 452 kts | 304° |
| 2026-04-19 04:57 | -6.36149 | 111.96019 | 33885 ft | 452 kts | 304° |
| 2026-04-19 04:58 | -6.32683 | 111.90762 | 33885 ft | 452 kts | 304° |
| 2026-04-19 04:58 | -6.29207 | 111.85490 | 33885 ft | 452 kts | 304° |
| 2026-04-19 04:59 | -6.25741 | 111.80235 | 33885 ft | 452 kts | 304° |
| 2026-04-19 04:59 | -6.22291 | 111.75006 | 33885 ft | 452 kts | 304° |
| 2026-04-19 05:00 | -6.18822 | 111.69751 | 33885 ft | 452 kts | 304° |
| 2026-04-19 05:00 | -6.15346 | 111.64487 | 33885 ft | 452 kts | 304° |
| 2026-04-19 05:01 | -6.11888 | 111.59251 | 33885 ft | 452 kts | 304° |
| 2026-04-19 05:01 | -6.08429 | 111.54013 | 33885 ft | 452 kts | 304° |
| 2026-04-19 05:02 | -6.04946 | 111.48743 | 33885 ft | 452 kts | 304° |
| 2026-04-19 05:02 | -6.01478 | 111.43494 | 33885 ft | 452 kts | 304° |
| 2026-04-19 05:03 | -5.98024 | 111.38271 | 33885 ft | 452 kts | 304° |
| 2026-04-19 05:03 | -5.94548 | 111.33015 | 33885 ft | 452 kts | 304° |
| 2026-04-19 05:04 | -5.91071 | 111.27754 | 33885 ft | 452 kts | 304° |
| 2026-04-19 05:04 | -5.88429 | 111.22038 | 33884 ft | 454 kts | 285° |
| 2026-04-19 05:05 | -5.87931 | 111.18934 | 33885 ft | 455 kts | 274° |
| 2026-04-19 05:05 | -5.87980 | 111.15752 | 33886 ft | 455 kts | 265° |
| 2026-04-19 05:05 | -5.88711 | 111.09416 | 33885 ft | 456 kts | 264° |
| 2026-04-19 05:06 | -5.89364 | 111.03136 | 33885 ft | 456 kts | 264° |
| 2026-04-19 05:06 | -5.90053 | 110.96777 | 33885 ft | 456 kts | 264° |
| 2026-04-19 05:07 | -5.90743 | 110.90475 | 33885 ft | 457 kts | 264° |
| 2026-04-19 05:07 | -5.91442 | 110.84126 | 33885 ft | 457 kts | 264° |
| 2026-04-19 05:08 | -5.92492 | 110.74626 | 33885 ft | 457 kts | 263° |
| 2026-04-19 05:09 | -5.93191 | 110.68302 | 33856 ft | 457 kts | 263° |
| 2026-04-19 05:09 | -5.93894 | 110.61941 | 33858 ft | 457 kts | 263° |
| 2026-04-19 05:10 | -5.94596 | 110.55590 | 33858 ft | 457 kts | 263° |
| 2026-04-19 05:10 | -5.95293 | 110.49274 | 33858 ft | 457 kts | 263° |
| 2026-04-19 05:11 | -5.95990 | 110.42953 | 33858 ft | 457 kts | 263° |
| 2026-04-19 05:11 | -5.96571 | 110.36612 | 33857 ft | 457 kts | 269° |
| 2026-04-19 05:12 | -5.96518 | 110.30218 | 33858 ft | 457 kts | 271° |
| 2026-04-19 05:12 | -5.96512 | 110.23856 | 33858 ft | 457 kts | 270° |
| 2026-04-19 05:13 | -5.96509 | 110.17516 | 33858 ft | 457 kts | 270° |
| 2026-04-19 05:13 | -5.96504 | 110.11121 | 33858 ft | 457 kts | 270° |
| 2026-04-19 05:14 | -5.96501 | 110.04772 | 33858 ft | 457 kts | 270° |
| 2026-04-19 05:14 | -5.96497 | 109.98384 | 33858 ft | 457 kts | 270° |
| 2026-04-19 05:15 | -5.96493 | 109.92026 | 33858 ft | 457 kts | 270° |
| 2026-04-19 05:15 | -5.96489 | 109.85644 | 33858 ft | 457 kts | 270° |
| 2026-04-19 05:16 | -5.96484 | 109.79259 | 33858 ft | 457 kts | 270° |
| 2026-04-19 05:16 | -5.96479 | 109.72909 | 33858 ft | 457 kts | 270° |
| 2026-04-19 05:17 | -5.96472 | 109.66560 | 33858 ft | 457 kts | 270° |
| 2026-04-19 05:17 | -5.96465 | 109.60162 | 33858 ft | 457 kts | 270° |
| 2026-04-19 05:18 | -5.96457 | 109.53813 | 33858 ft | 457 kts | 270° |
| 2026-04-19 05:18 | -5.96449 | 109.47458 | 33858 ft | 456 kts | 270° |
| 2026-04-19 05:19 | -5.96439 | 109.41092 | 33858 ft | 457 kts | 270° |
| 2026-04-19 05:19 | -5.96429 | 109.34682 | 33858 ft | 457 kts | 270° |
| 2026-04-19 05:20 | -5.96419 | 109.28320 | 33858 ft | 456 kts | 270° |
| 2026-04-19 05:20 | -5.96409 | 109.21995 | 33858 ft | 456 kts | 270° |
| 2026-04-19 05:21 | -5.96397 | 109.15616 | 33858 ft | 456 kts | 270° |
| 2026-04-19 05:21 | -5.96384 | 109.09238 | 33858 ft | 456 kts | 270° |
| 2026-04-19 05:22 | -5.96370 | 109.02857 | 33858 ft | 457 kts | 271° |
| 2026-04-19 05:22 | -5.96356 | 108.96476 | 33858 ft | 457 kts | 271° |
| 2026-04-19 05:23 | -5.96341 | 108.90115 | 33863 ft | 457 kts | 271° |
| 2026-04-19 05:23 | -5.96325 | 108.83752 | 33870 ft | 457 kts | 271° |
| 2026-04-19 05:24 | -5.96308 | 108.77389 | 33878 ft | 457 kts | 271° |
| 2026-04-19 05:24 | -5.96291 | 108.70995 | 33885 ft | 457 kts | 271° |
| 2026-04-19 05:25 | -5.96273 | 108.64616 | 33885 ft | 457 kts | 271° |
| 2026-04-19 05:25 | -5.96254 | 108.58263 | 33885 ft | 457 kts | 271° |
| 2026-04-19 05:26 | -5.96235 | 108.51892 | 33885 ft | 457 kts | 271° |
| 2026-04-19 05:26 | -5.96216 | 108.45489 | 33885 ft | 457 kts | 271° |
| 2026-04-19 05:27 | -5.96213 | 108.39147 | 33885 ft | 457 kts | 271° |
| 2026-04-19 05:27 | -5.96208 | 108.32721 | 33885 ft | 456 kts | 271° |
| 2026-04-19 05:28 | -5.96203 | 108.26362 | 33885 ft | 457 kts | 271° |
| 2026-04-19 05:28 | -5.96196 | 108.19997 | 33885 ft | 457 kts | 271° |
| 2026-04-19 05:29 | -5.96188 | 108.13614 | 33885 ft | 457 kts | 271° |
| 2026-04-19 05:29 | -5.96180 | 108.07277 | 33885 ft | 457 kts | 271° |
| 2026-04-19 05:30 | -5.96171 | 108.00884 | 33885 ft | 457 kts | 271° |
| 2026-04-19 05:30 | -5.96165 | 107.94526 | 33885 ft | 457 kts | 271° |
| 2026-04-19 05:31 | -5.96168 | 107.88121 | 32954 ft | 465 kts | 271° |
| 2026-04-19 05:31 | -5.96168 | 107.84913 | 32220 ft | 464 kts | 270° |
| 2026-04-19 05:31 | -5.96169 | 107.81672 | 31546 ft | 462 kts | 270° |
| 2026-04-19 05:31 | -5.96169 | 107.78453 | 30747 ft | 464 kts | 270° |
| 2026-04-19 05:32 | -5.96169 | 107.75224 | 30191 ft | 458 kts | 270° |
| 2026-04-19 05:32 | -5.96168 | 107.72086 | 29635 ft | 454 kts | 270° |
| 2026-04-19 05:32 | -5.96168 | 107.68927 | 29051 ft | 450 kts | 270° |
| 2026-04-19 05:32 | -5.96167 | 107.65749 | 28477 ft | 446 kts | 270° |
| 2026-04-19 05:33 | -5.96167 | 107.62676 | 27938 ft | 441 kts | 270° |
| 2026-04-19 05:33 | -5.96167 | 107.59589 | 27395 ft | 437 kts | 270° |
| 2026-04-19 05:33 | -5.96168 | 107.56583 | 26849 ft | 433 kts | 270° |
| 2026-04-19 05:33 | -5.96169 | 107.53552 | 26298 ft | 429 kts | 270° |
| 2026-04-19 05:34 | -5.96169 | 107.50580 | 25748 ft | 426 kts | 270° |
| 2026-04-19 05:34 | -5.96169 | 107.47599 | 25200 ft | 422 kts | 270° |
| 2026-04-19 05:34 | -5.96169 | 107.44657 | 24645 ft | 419 kts | 270° |
| 2026-04-19 05:34 | -5.96169 | 107.41739 | 24100 ft | 415 kts | 270° |
| 2026-04-19 05:35 | -5.96168 | 107.38872 | 23562 ft | 412 kts | 270° |
| 2026-04-19 05:35 | -5.96167 | 107.35998 | 23024 ft | 408 kts | 270° |
| 2026-04-19 05:35 | -5.96167 | 107.33146 | 22483 ft | 405 kts | 270° |
| 2026-04-19 05:35 | -5.96166 | 107.30353 | 22035 ft | 399 kts | 270° |
| 2026-04-19 05:36 | -5.96162 | 107.27614 | 21682 ft | 391 kts | 270° |
| 2026-04-19 05:36 | -5.96158 | 107.24892 | 21196 ft | 388 kts | 270° |
| 2026-04-19 05:36 | -5.96153 | 107.22185 | 20775 ft | 382 kts | 270° |
| 2026-04-19 05:36 | -5.96149 | 107.19562 | 20612 ft | 369 kts | 270° |
| 2026-04-19 05:37 | -5.96145 | 107.17034 | 20421 ft | 359 kts | 270° |
| 2026-04-19 05:37 | -5.96141 | 107.14567 | 19911 ft | 349 kts | 270° |
| 2026-04-19 05:37 | -5.96136 | 107.12182 | 19332 ft | 338 kts | 270° |
| 2026-04-19 05:37 | -5.96132 | 107.09864 | 18711 ft | 331 kts | 270° |
| 2026-04-19 05:38 | -5.96128 | 107.07546 | 18078 ft | 326 kts | 270° |
| 2026-04-19 05:38 | -5.96123 | 107.05299 | 17463 ft | 326 kts | 270° |
| 2026-04-19 05:38 | -5.96119 | 107.03037 | 16831 ft | 321 kts | 270° |
| 2026-04-19 05:38 | -5.96113 | 107.00809 | 16203 ft | 316 kts | 270° |
| 2026-04-19 05:39 | -5.96108 | 106.98620 | 15578 ft | 313 kts | 270° |
| 2026-04-19 05:39 | -5.96103 | 106.96445 | 14952 ft | 311 kts | 270° |
| 2026-04-19 05:39 | -5.96097 | 106.94318 | 14335 ft | 308 kts | 270° |
| 2026-04-19 05:39 | -5.96092 | 106.92178 | 13706 ft | 304 kts | 270° |
| 2026-04-19 05:40 | -5.96086 | 106.90051 | 13075 ft | 301 kts | 270° |
| 2026-04-19 05:40 | -5.96081 | 106.87968 | 12449 ft | 298 kts | 270° |
| 2026-04-19 05:40 | -5.96075 | 106.85915 | 11826 ft | 294 kts | 270° |
| 2026-04-19 05:40 | -5.96070 | 106.83877 | 11201 ft | 292 kts | 270° |
| 2026-04-19 05:41 | -5.96064 | 106.81842 | 10572 ft | 289 kts | 270° |
| 2026-04-19 05:41 | -5.96062 | 106.79855 | 9953 ft | 287 kts | 269° |
| 2026-04-19 05:41 | -5.96400 | 106.77904 | 9323 ft | 285 kts | 250° |
| 2026-04-19 05:41 | -5.97170 | 106.76070 | 8699 ft | 284 kts | 247° |
| 2026-04-19 05:42 | -5.97917 | 106.74247 | 8439 ft | 277 kts | 248° |
| 2026-04-19 05:42 | -5.98626 | 106.72484 | 8293 ft | 277 kts | 248° |
| 2026-04-19 05:42 | -5.99364 | 106.70664 | 8016 ft | 281 kts | 248° |
| 2026-04-19 05:42 | -6.00102 | 106.68842 | 7673 ft | 280 kts | 248° |
| 2026-04-19 05:43 | -6.00824 | 106.67058 | 7326 ft | 278 kts | 248° |
| 2026-04-19 05:43 | -6.01560 | 106.65240 | 6970 ft | 277 kts | 248° |
| 2026-04-19 05:43 | -6.02283 | 106.63454 | 6619 ft | 276 kts | 248° |
| 2026-04-19 05:43 | -6.02996 | 106.61694 | 6294 ft | 274 kts | 248° |
| 2026-04-19 05:44 | -6.03706 | 106.59938 | 6150 ft | 264 kts | 248° |
| 2026-04-19 05:44 | -6.04390 | 106.58247 | 6006 ft | 256 kts | 248° |
| 2026-04-19 05:44 | -6.05048 | 106.56620 | 5740 ft | 253 kts | 248° |
| 2026-04-19 05:44 | -6.05709 | 106.54982 | 5445 ft | 252 kts | 248° |
| 2026-04-19 05:45 | -6.06360 | 106.53370 | 5253 ft | 244 kts | 248° |
| 2026-04-19 05:45 | -6.06981 | 106.51832 | 5161 ft | 231 kts | 248° |
| 2026-04-19 05:45 | -6.07577 | 106.50358 | 5065 ft | 219 kts | 248° |
| 2026-04-19 05:45 | -6.08131 | 106.48985 | 4967 ft | 208 kts | 249° |
| 2026-04-19 05:46 | -6.08669 | 106.47652 | 4763 ft | 202 kts | 249° |
| 2026-04-19 05:46 | -6.09192 | 106.46356 | 4503 ft | 200 kts | 249° |
| 2026-04-19 05:46 | -6.09711 | 106.45069 | 4227 ft | 199 kts | 249° |
| 2026-04-19 05:46 | -6.10233 | 106.43779 | 3943 ft | 199 kts | 247° |
| 2026-04-19 05:47 | -6.11045 | 106.42670 | 3613 ft | 199 kts | 213° |
| 2026-04-19 05:47 | -6.12324 | 106.42267 | 3355 ft | 192 kts | 180° |
| 2026-04-19 05:47 | -6.13626 | 106.42419 | 3132 ft | 184 kts | 167° |
| 2026-04-19 05:47 | -6.14860 | 106.42638 | 3013 ft | 178 kts | 167° |
| 2026-04-19 05:48 | -6.16106 | 106.42861 | 3020 ft | 182 kts | 165° |
| 2026-04-19 05:48 | -6.17193 | 106.43434 | 3018 ft | 176 kts | 128° |
| 2026-04-19 05:48 | -6.17708 | 106.44529 | 3021 ft | 173 kts | 97° |
| 2026-04-19 05:48 | -6.17832 | 106.45716 | 3020 ft | 172 kts | 93° |
| 2026-04-19 05:49 | -6.17953 | 106.46906 | 3019 ft | 172 kts | 93° |
| 2026-04-19 05:49 | -6.18073 | 106.48110 | 3020 ft | 171 kts | 93° |
| 2026-04-19 05:49 | -6.17989 | 106.49285 | 2954 ft | 172 kts | 70° |
| 2026-04-19 05:49 | -6.17547 | 106.50401 | 2756 ft | 169 kts | 66° |
| 2026-04-19 05:50 | -6.17112 | 106.51479 | 2540 ft | 167 kts | 66° |
| 2026-04-19 05:50 | -6.16702 | 106.52499 | 2342 ft | 166 kts | 66° |
| 2026-04-19 05:50 | -6.16389 | 106.53284 | 2180 ft | 163 kts | 66° |
| 2026-04-19 05:50 | -6.15968 | 106.54338 | 1976 ft | 164 kts | 66° |
| 2026-04-19 05:51 | -6.15565 | 106.55353 | 1771 ft | 144 kts | 66° |
| 2026-04-19 05:51 | -6.15196 | 106.56273 | 1607 ft | 142 kts | 66° |
| 2026-04-19 05:51 | -6.14833 | 106.57179 | 1414 ft | 139 kts | 66° |
| 2026-04-19 05:51 | -6.14472 | 106.58085 | 1230 ft | 139 kts | 66° |
| 2026-04-19 05:52 | -6.14115 | 106.58981 | 1054 ft | 138 kts | 66° |
| 2026-04-19 05:52 | -6.13758 | 106.59875 | 878 ft | 138 kts | 66° |
| 2026-04-19 05:52 | -6.13402 | 106.60772 | 702 ft | 137 kts | 66° |
| 2026-04-19 05:52 | -6.13051 | 106.61656 | 527 ft | 137 kts | 66° |
| 2026-04-19 05:53 | -6.12697 | 106.62546 | 364 ft | 136 kts | 66° |
| 2026-04-19 05:53 | -6.12326 | 106.63408 | 211 ft | 135 kts | 64° |
| 2026-04-19 05:53 | -6.11947 | 106.64280 | 77 ft | 134 kts | 66° |
| 2026-04-19 05:53 | -6.11631 | 106.65078 | 49 ft | 100 kts | 62° |
| 2026-04-19 05:54 | -6.11447 | 106.65524 | 48 ft | 39 kts | 71° |
| 2026-04-19 05:54 | -6.11416 | 106.65685 | 48 ft | 16 kts | 91° |
| 2026-04-19 05:54 | -6.11426 | 106.65794 | 48 ft | 15 kts | 96° |
| 2026-04-19 05:54 | -6.11468 | 106.65871 | 48 ft | 12 kts | 157° |
| 2026-04-19 05:55 | -6.11552 | 106.65913 | 48 ft | 11 kts | 157° |
| 2026-04-19 05:55 | -6.11601 | 106.65876 | 48 ft | 12 kts | 254° |
| 2026-04-19 05:55 | -6.11637 | 106.65785 | 48 ft | 15 kts | 248° |
| 2026-04-19 05:55 | -6.11679 | 106.65678 | 48 ft | 17 kts | 248° |
| 2026-04-19 05:56 | -6.11717 | 106.65583 | 48 ft | 13 kts | 249° |
| 2026-04-19 05:56 | -6.11746 | 106.65505 | 48 ft | 10 kts | 247° |
| 2026-04-19 05:56 | -6.11775 | 106.65440 | 48 ft | 9 kts | 244° |
| 2026-04-19 05:56 | -6.11801 | 106.65381 | 48 ft | 9 kts | 253° |
| 2026-04-19 05:57 | -6.11826 | 106.65309 | 48 ft | 13 kts | 247° |
| 2026-04-19 05:57 | -6.11867 | 106.65204 | 48 ft | 17 kts | 248° |
| 2026-04-19 05:57 | -6.11914 | 106.65085 | 48 ft | 18 kts | 249° |
| 2026-04-19 05:57 | -6.11959 | 106.64974 | 48 ft | 15 kts | 248° |
| 2026-04-19 05:58 | -6.11998 | 106.64879 | 48 ft | 13 kts | 248° |
| 2026-04-19 05:58 | -6.12030 | 106.64796 | 48 ft | 12 kts | 249° |
| 2026-04-19 05:58 | -6.12065 | 106.64709 | 48 ft | 13 kts | 248° |
| 2026-04-19 05:58 | -6.12101 | 106.64619 | 48 ft | 13 kts | 248° |
| 2026-04-19 05:59 | -6.12137 | 106.64529 | 48 ft | 14 kts | 248° |
| 2026-04-19 05:59 | -6.12183 | 106.64449 | 48 ft | 12 kts | 207° |
| 2026-04-19 05:59 | -6.12262 | 106.64464 | 48 ft | 12 kts | 158° |
| 2026-04-19 05:59 | -6.12354 | 106.64500 | 48 ft | 15 kts | 159° |
| 2026-04-19 06:00 | -6.12458 | 106.64540 | 48 ft | 16 kts | 159° |
| 2026-04-19 06:00 | -6.12563 | 106.64584 | 48 ft | 16 kts | 158° |
| 2026-04-19 06:00 | -6.12674 | 106.64628 | 48 ft | 17 kts | 158° |
| 2026-04-19 06:00 | -6.12787 | 106.64673 | 52 ft | 15 kts | 159° |
| 2026-04-19 06:01 | -6.12869 | 106.64705 | 62 ft | 10 kts | 158° |
| 2026-04-19 06:01 | -6.12945 | 106.64738 | 69 ft | 13 kts | 156° |
| 2026-04-19 06:01 | -6.13067 | 106.64786 | 54 ft | 18 kts | 159° |
| 2026-04-19 06:01 | -6.13182 | 106.64832 | 48 ft | 16 kts | 158° |
| 2026-04-19 06:02 | -6.13278 | 106.64871 | 48 ft | 14 kts | 158° |
| 2026-04-19 06:02 | -6.13391 | 106.64915 | 48 ft | 18 kts | 158° |
| 2026-04-19 06:02 | -6.13512 | 106.64963 | 48 ft | 19 kts | 159° |
| 2026-04-19 06:02 | -6.13633 | 106.65009 | 48 ft | 15 kts | 158° |
| 2026-04-19 06:03 | -6.13679 | 106.65077 | 48 ft | 11 kts | 73° |
| 2026-04-19 06:03 | -6.13650 | 106.65151 | 48 ft | 12 kts | 68° |
| 2026-04-19 06:03 | -6.13613 | 106.65247 | 48 ft | 16 kts | 68° |
| 2026-04-19 06:03 | -6.13564 | 106.65366 | 48 ft | 20 kts | 68° |
| 2026-04-19 06:04 | -6.13513 | 106.65491 | 48 ft | 18 kts | 67° |
| 2026-04-19 06:04 | -6.13468 | 106.65608 | 48 ft | 17 kts | 68° |
| 2026-04-19 06:04 | -6.13423 | 106.65720 | 48 ft | 16 kts | 68° |
| 2026-04-19 06:04 | -6.13370 | 106.65816 | 48 ft | 15 kts | 28° |
| 2026-04-19 06:05 | -6.13271 | 106.65818 | 48 ft | 14 kts | 8° |
| 2026-04-19 06:05 | -6.13216 | 106.65820 | 48 ft | 5 kts | 338° |
| 2026-04-19 06:05 | -6.13200 | 106.65796 | 48 ft | 3 kts | 284° |
| 2026-04-19 06:05 | -6.13195 | 106.65773 | 48 ft | 2 kts | 279° |
| 2026-04-19 06:06 | -6.13193 | 106.65762 | 48 ft | 0 kts | 279° |